This is the latest recevied weather packets stored in our database for station/object N0QWM. If no packets are shown the sender has not sent any weather packets the latest 10 day(s).
| Time | Temp. | Humidity | Pressure | Rain* | Wind** | Luminosity | Snow |
|---|---|---|---|---|---|---|---|
| 1777302722 | 23.33° C | 79% | 1023.1 hPa | 0 mm | - | 806 W/m² | - |
| 1777302421 | 23.33° C | 78% | 1023 hPa | 0 mm | - | 821 W/m² | - |
| 1777302118 | 22.78° C | 81% | 1022.9 hPa | 0 mm | - | 802 W/m² | - |
| 1777301815 | 22.78° C | 80% | 1023.2 hPa | 0 mm | - | 206 W/m² | - |
| 1777301513 | 22.78° C | 80% | 1023.1 hPa | 0 mm | - | 821 W/m² | - |
| 1777301209 | 22.22° C | 81% | 1023 hPa | 0 mm | - | 730 W/m² | - |
| 1777300906 | 22.78° C | 80% | 1023 hPa | 0 mm | - | 173 W/m² | - |
| 1777300604 | 22.22° C | 81% | 1023.1 hPa | 0 mm | - | 698 W/m² | - |
| 1777300302 | 22.78° C | 79% | 1023 hPa | 0 mm | - | 295 W/m² | - |
| 1777299998 | 22.22° C | 80% | 1023.1 hPa | 0 mm | - | 236 W/m² | - |
| 1777299695 | 22.22° C | 80% | 1023.2 hPa | 0 mm | - | 626 W/m² | - |
| 1777299392 | 22.22° C | 81% | 1022.9 hPa | 0 mm | - | 603 W/m² | - |
| 1777299090 | 22.22° C | 81% | 1022.9 hPa | 0 mm | - | 580 W/m² | - |
| 1777298787 | 21.67° C | 82% | 1023 hPa | 0 mm | - | 521 W/m² | - |
| 1777298483 | 21.67° C | 84% | 1023.1 hPa | 0 mm | - | 419 W/m² | - |
| 1777298180 | 21.11° C | 83% | 1023.1 hPa | 0 mm | - | 147 W/m² | - |
| 1777297875 | 21.11° C | 84% | 1023.3 hPa | 0 mm | - | 149 W/m² | - |
| 1777297573 | 21.11° C | 83% | 1023.2 hPa | 0 mm | - | 448 W/m² | - |
| 1777297269 | 20.56° C | 86% | 1023.2 hPa | 0 mm | - | 225 W/m² | - |
| 1777296967 | 20.56° C | 86% | 1022.9 hPa | 0 mm | - | 103 W/m² | - |
| 1777296664 | 20° C | 86% | 1022.6 hPa | 0 mm | - | 77 W/m² | - |
| 1777296350 | 20° C | 87% | 1022.8 hPa | 0 mm | - | 73 W/m² | - |
| 1777296045 | 19.44° C | 88% | 1022.5 hPa | 0 mm | - | 102 W/m² | - |
| 1777295743 | 19.44° C | 88% | 1022.5 hPa | 0 mm | - | 63 W/m² | - |
| 1777295440 | 19.44° C | 89% | 1022.2 hPa | 0 mm | - | 62 W/m² | - |
* Rain latest hour (hover to see other rain measurements)
** Current wind speed in m/s (hover to see current wind gust speed)